Time;durP1;ratioP1;P1;durP2;ratioP2;P2;SDS_P1;SDS_P2;PMS_P1;PMS_P2;Temp;Humidity;BMP_temperature;BMP_pressure;BME280_temperature;BME280_humidity;BME280_pressure;Samples;Min_cycle;Max_cycle;Signal;HPM_P1;HPM_P2
2020/05/29 00:01:06;;;;;;;6.1;4.1;;;;;;;;;;;;;
2020/05/29 00:05:48;;;;;;;5.1;3.6;;;;;;;;;;;;;
2020/05/29 00:08:13;;;;;;;5.2;3.7;;;;;;;;;;;;;
2020/05/29 00:10:38;;;;;;;5.5;3.7;;;;;;;;;;;;;
2020/05/29 00:15:34;;;;;;;5.3;3.8;;;;;;;;;;;;;
2020/05/29 00:17:55;;;;;;;5.8;3.9;;;;;;;;;;;;;
2020/05/29 00:20:19;;;;;;;5.7;3.6;;;;;;;;;;;;;
2020/05/29 00:22:44;;;;;;;6.8;3.5;;;;;;;;;;;;;
2020/05/29 00:25:10;;;;;;;5.8;3.4;;;;;;;;;;;;;
2020/05/29 00:27:36;;;;;;;6;3.6;;;;;;;;;;;;;
2020/05/29 00:30:01;;;;;;;5.3;4;;;;;;;;;;;;;
2020/05/29 00:32:26;;;;;;;5.9;3.7;;;;;;;;;;;;;
2020/05/29 00:34:52;;;;;;;4.2;3.6;;;;;;;;;;;;;
2020/05/29 00:37:17;;;;;;;5.3;3.7;;;;;;;;;;;;;
2020/05/29 00:39:44;;;;;;;5.3;3.8;;;;;;;;;;;;;
2020/05/29 00:42:08;;;;;;;5.8;3.5;;;;;;;;;;;;;
2020/05/29 00:47:06;;;;;;;4.1;3.7;;;;;;;;;;;;;
2020/05/29 00:51:58;;;;;;;6.1;3.4;;;;;;;;;;;;;
2020/05/29 00:54:14;;;;;;;4.3;3.2;;;;;;;;;;;;;
2020/05/29 00:59:05;;;;;;;3.6;3.1;;;;;;;;;;;;;
2020/05/29 01:04:05;;;;;;;4.3;3.6;;;;;;;;;;;;;
2020/05/29 01:06:39;;;;;;;5.5;4.1;;;;;;;;;;;;;
2020/05/29 01:08:52;;;;;;;5.3;4.1;;;;;;;;;;;;;
2020/05/29 01:16:27;;;;;;;5.9;4.7;;;;;;;;;;;;;
2020/05/29 01:18:36;;;;;;;7.2;4.7;;;;;;;;;;;;;
2020/05/29 01:23:16;;;;;;;5.5;4.5;;;;;;;;;;;;;
2020/05/29 01:25:42;;;;;;;5;4.5;;;;;;;;;;;;;
2020/05/29 01:28:07;;;;;;;4.9;4;;;;;;;;;;;;;
2020/05/29 01:30:32;;;;;;;6;4.3;;;;;;;;;;;;;
2020/05/29 01:33:07;;;;;;;6.5;4.7;;;;;;;;;;;;;
2020/05/29 01:37:50;;;;;;;6;4.1;;;;;;;;;;;;;
2020/05/29 01:40:12;;;;;;;4.8;3.9;;;;;;;;;;;;;
2020/05/29 01:42:41;;;;;;;6.2;4.4;;;;;;;;;;;;;
2020/05/29 01:45:03;;;;;;;5.2;4.5;;;;;;;;;;;;;
2020/05/29 01:47:36;;;;;;;5;4;;;;;;;;;;;;;
2020/05/29 01:57:09;;;;;;;5.3;4.2;;;;;;;;;;;;;
2020/05/29 01:59:36;;;;;;;5.9;4;;;;;;;;;;;;;
2020/05/29 02:02:00;;;;;;;8.3;4;;;;;;;;;;;;;
2020/05/29 02:04:24;;;;;;;4.6;3.8;;;;;;;;;;;;;
2020/05/29 02:06:49;;;;;;;4;3.6;;;;;;;;;;;;;
2020/05/29 02:09:14;;;;;;;5.2;3.5;;;;;;;;;;;;;
2020/05/29 02:11:48;;;;;;;3.9;3.5;;;;;;;;;;;;;
2020/05/29 02:14:07;;;;;;;4.1;3.7;;;;;;;;;;;;;
2020/05/29 02:21:28;;;;;;;4.4;3.8;;;;;;;;;;;;;
2020/05/29 02:24:10;;;;;;;6.1;4.3;;;;;;;;;;;;;
2020/05/29 02:36:07;;;;;;;11.2;8.4;;;;;;;;;;;;;
2020/05/29 02:38:21;;;;;;;11.3;9;;;;;;;;;;;;;
2020/05/29 02:40:47;;;;;;;10.4;9.1;;;;;;;;;;;;;
2020/05/29 02:57:53;;;;;;;10.7;7.6;;;;;;;;;;;;;
2020/05/29 03:04:58;;;;;;;7.3;6.4;;;;;;;;;;;;;
2020/05/29 03:08:23;;;;;;;6.6;5.9;;;;;;;;;;;;;
2020/05/29 03:10:00;;;;;;;6.6;6;;;;;;;;;;;;;
2020/05/29 03:14:54;;;;;;;8.1;6.4;;;;;;;;;;;;;
2020/05/29 03:19:39;;;;;;;6.8;6.1;;;;;;;;;;;;;
2020/05/29 03:22:12;;;;;;;7.3;5.7;;;;;;;;;;;;;
2020/05/29 03:24:23;;;;;;;6.3;5.7;;;;;;;;;;;;;
2020/05/29 03:27:02;;;;;;;8.4;5.2;;;;;;;;;;;;;
2020/05/29 03:29:37;;;;;;;6.1;5.5;;;;;;;;;;;;;
2020/05/29 03:31:52;;;;;;;5.2;4.4;;;;;;;;;;;;;
2020/05/29 03:34:05;;;;;;;5.6;4.1;;;;;;;;;;;;;
2020/05/29 03:36:36;;;;;;;4.9;3.9;;;;;;;;;;;;;
2020/05/29 03:39:08;;;;;;;5.7;4.4;;;;;;;;;;;;;
2020/05/29 03:41:37;;;;;;;5.5;4;;;;;;;;;;;;;
2020/05/29 03:43:44;;;;;;;4.6;4.1;;;;;;;;;;;;;
2020/05/29 03:48:40;;;;;;;6.4;4.5;;;;;;;;;;;;;
2020/05/29 03:51:02;;;;;;;5.3;4.2;;;;;;;;;;;;;
2020/05/29 03:53:27;;;;;;;8.7;4.5;;;;;;;;;;;;;
2020/05/29 04:02:43;;;;;;;6.9;4.6;;;;;;;7.61;86.26563;946.4695;;;;
2020/05/29 04:06:46;;;;;;;5;4.4;;;;;;;7.6;86.06152;946.4757;;;;
2020/05/29 04:08:14;;;;;;;8.4;4.5;;;;;;;7.55;85.84668;946.5105;;;;
2020/05/29 04:10:02;;;;;;;7.6;4.6;;;;;;;7.55;85.7334;946.5667;;;;
2020/05/29 04:15:00;;;;;;;5.4;4.4;;;;;;;7.39;86.78906;946.553;;;;
2020/05/29 04:17:14;;;;;;;6;4.3;;;;;;;7.34;87.03906;946.5742;;;;
2020/05/29 04:20:08;;;;;;;6.2;4.2;;;;;;;7.27;87.05762;946.6476;;;;
2020/05/29 04:27:04;;;;;;;5;3.3;;;;;;;7.26;86.29688;946.5522;;;;
2020/05/29 04:31:01;;;;;;;4.8;3.7;;;;;;;7.25;85.12793;946.5108;;;;
2020/05/29 04:31:44;;;;;;;5.7;4;;;;;;;7.2;85.07227;946.5555;;;;
2020/05/29 04:34:12;;;;;;;6.2;3.9;;;;;;;7.25;84.88086;946.61;;;;
2020/05/29 04:36:34;;;;;;;7.5;4.3;;;;;;;7.2;85.47949;946.5197;;;;
2020/05/29 04:39:04;;;;;;;5.1;4;;;;;;;7.22;85.40625;946.5368;;;;
2020/05/29 04:46:32;;;;;;;7.1;4.8;;;;;;;7.03;87.1123;946.4966;;;;
2020/05/29 04:48:48;;;;;;;5.1;4.5;;;;;;;7.1;86.81934;946.509;;;;
2020/05/29 04:53:45;;;;;;;8.5;4.8;;;;;;;7.29;86.62207;946.6106;;;;
2020/05/29 04:58:17;;;;;;;7.6;4.6;;;;;;;7.37;86.54688;946.5403;;;;
2020/05/29 05:03:12;;;;;;;5.6;4.4;;;;;;;7.7;86.38574;946.5427;;;;
2020/05/29 05:05:58;;;;;;;2.9;2.1;;;;;;;9.08;80.30273;946.4598;;;;
2020/05/29 05:16:40;;;;;;;1.6;1.3;;;;;;;13.77;61.65527;946.2856;;;;
2020/05/29 05:27:23;;;;;;;2.2;1;;;;;;;16.8;47.40918;946.2603;;;;
2020/05/29 05:32:20;;;;;;;2.3;1.2;;;;;;;16.4;51.64648;946.185;;;;
2020/05/29 05:34:42;;;;;;;1.8;0.9;;;;;;;16.21;50.9082;946.1758;;;;
2020/05/29 05:36:59;;;;;;;1.8;0.9;;;;;;;16.66;49.64063;946.1092;;;;
2020/05/29 05:41:51;;;;;;;4.8;1;;;;;;;17.83;46.5791;946.0724;;;;
2020/05/29 05:44:19;;;;;;;2.6;0.9;;;;;;;17.78;46.00586;946.0603;;;;
2020/05/29 05:54:02;;;;;;;1.5;0.8;;;;;;;18.61;43.4873;946.0698;;;;
2020/05/29 05:56:40;;;;;;;2.9;1.1;;;;;;;18.68;43.08789;946.0828;;;;
2020/05/29 06:06:53;;;;;;;4.8;0.9;;;;;;;19.55;40.68945;946.0109;;;;
2020/05/29 06:08:42;;;;;;;1.7;0.7;;;;;;;20.21;39.94531;945.9587;;;;
2020/05/29 06:20:54;;;;;;;3.5;0.8;;;;;;;22.59;36.28711;945.9838;;;;
2020/05/29 06:23:14;;;;;;;4.2;1;;;;;;;23.03;34.94824;946.0402;;;;
2020/05/29 06:30:26;;;;;;;4.8;0.8;;;;;;;21.02;41.97168;946.0698;;;;
2020/05/29 06:35:30;;;;;;;1.3;0.8;;;;;;;23.25;36.05859;946.0038;;;;
2020/05/29 06:37:41;;;;;;;2.7;0.9;;;;;;;22.97;36.84668;946.0488;;;;
2020/05/29 06:40:05;;;;;;;1.9;0.8;;;;;;;24.18;34.54492;946.0343;;;;
2020/05/29 06:42:25;;;;;;;1.4;0.8;;;;;;;24.7;33.4873;945.9856;;;;
2020/05/29 06:44:52;;;;;;;2.7;0.9;;;;;;;24.88;33.55957;946.0061;;;;
2020/05/29 06:47:31;;;;;;;3.4;0.9;;;;;;;24.02;36.88574;945.9774;;;;
2020/05/29 06:52:30;;;;;;;2.6;1.1;;;;;;;24.27;33.82031;945.8519;;;;
2020/05/29 06:54:42;;;;;;;5.2;1.1;;;;;;;24.15;35.84961;945.9059;;;;
2020/05/29 06:57:09;;;;;;;4.2;1.3;;;;;;;23.92;36.4668;945.9435;;;;
2020/05/29 07:06:56;;;;;;;2.1;0.8;;;;;;;29.14;26.60352;945.9781;;;;
2020/05/29 07:09:04;;;;;;;2.3;1;;;;;;;28.07;26.97949;945.9288;;;;
2020/05/29 07:11:27;;;;;;;2.9;0.8;;;;;;;28.56;26.7959;945.9006;;;;
2020/05/29 07:14:01;;;;;;;1.7;0.8;;;;;;;28.89;26.49414;945.9473;;;;
2020/05/29 07:19:24;;;;;;;3.1;0.9;;;;;;;28.62;26.7998;945.8279;;;;
2020/05/29 07:26:00;;;;;;;3.8;0.9;;;;;;;30.31;24.09375;945.8267;;;;
2020/05/29 07:30:55;;;;;;;1.9;0.9;;;;;;;31.15;23.20605;945.8601;;;;
2020/05/29 07:33:30;;;;;;;1.9;1;;;;;;;30.29;23.9375;945.843;;;;
2020/05/29 07:39:09;;;;;;;2;0.9;;;;;;;29.97;24.64844;945.728;;;;
2020/05/29 07:40:36;;;;;;;2.3;0.8;;;;;;;30.39;24.25293;945.692;;;;
2020/05/29 07:48:14;;;;;;;1.6;0.9;;;;;;;30.53;23.19727;945.6152;;;;
2020/05/29 07:52:47;;;;;;;2;0.7;;;;;;;28.73;26.55664;945.6004;;;;
2020/05/29 07:55:17;;;;;;;1.6;0.8;;;;;;;28.4;25.83496;945.5726;;;;
2020/05/29 08:00:01;;;;;;;1.6;0.9;;;;;;;29.13;25.76953;945.6214;;;;
2020/05/29 08:02:24;;;;;;;1.8;0.8;;;;;;;29.92;25.64844;945.5822;;;;
2020/05/29 08:04:48;;;;;;;1.7;0.8;;;;;;;30.19;25.79395;945.6281;;;;
2020/05/29 08:07:19;;;;;;;2.2;0.9;;;;;;;30.43;25.46191;945.5605;;;;
2020/05/29 08:17:10;;;;;;;1.6;0.8;;;;;;;31.05;24.79102;945.5627;;;;
2020/05/29 08:21:49;;;;;;;3.9;1;;;;;;;30.73;24.24805;945.5261;;;;
2020/05/29 08:26:38;;;;;;;4.7;1.2;;;;;;;31.27;23.88184;945.4386;;;;
2020/05/29 08:33:59;;;;;;;2.6;1;;;;;;;29.98;24.99512;945.416;;;;
2020/05/29 08:36:29;;;;;;;2.6;0.9;;;;;;;29.79;25.75977;945.3788;;;;
2020/05/29 08:41:06;;;;;;;1.7;0.8;;;;;;;30.72;23.4707;945.4327;;;;
2020/05/29 08:43:49;;;;;;;1.3;0.8;;;;;;;30.87;23.96875;945.3803;;;;
2020/05/29 08:46:15;;;;;;;2.1;0.8;;;;;;;29.45;24.46582;945.366;;;;
2020/05/29 08:48:48;;;;;;;1.3;0.7;;;;;;;29.19;25.94043;945.4148;;;;
2020/05/29 08:50:55;;;;;;;1.1;0.6;;;;;;;28.36;27.64063;945.3583;;;;
2020/05/29 08:53:19;;;;;;;2.5;0.8;;;;;;;28.79;27.80957;945.4294;;;;
2020/05/29 08:55:51;;;;;;;2.3;0.7;;;;;;;27.7;28.14551;945.448;;;;
2020/05/29 08:58:10;;;;;;;2.4;0.8;;;;;;;27.68;28.4043;945.4073;;;;
2020/05/29 09:03:04;;;;;;;1.8;0.8;;;;;;;27.55;29.41797;945.3494;;;;
2020/05/29 09:05:36;;;;;;;2.4;0.9;;;;;;;26.92;30.3125;945.354;;;;
2020/05/29 09:07:56;;;;;;;3.1;1;;;;;;;24.78;32.52734;945.2667;;;;
2020/05/29 09:17:40;;;;;;;1.9;0.8;;;;;;;20.99;39.18555;945.3057;;;;
2020/05/29 09:20:04;;;;;;;2.3;0.9;;;;;;;20.93;40.11523;945.2277;;;;
2020/05/29 09:22:35;;;;;;;2.6;0.9;;;;;;;20.95;39.45117;945.2175;;;;
2020/05/29 09:24:55;;;;;;;3.1;1;;;;;;;20.7;40.29297;945.1774;;;;
2020/05/29 09:27:38;;;;;;;1.5;0.7;;;;;;;20.9;41.15332;945.2143;;;;
2020/05/29 09:29:41;;;;;;;1.8;0.9;;;;;;;21.14;41.15137;945.1241;;;;
2020/05/29 09:44:38;;;;;;;2.2;1;;;;;;;22.36;37.98145;945.0435;;;;
2020/05/29 09:49:21;;;;;;;1.3;0.7;;;;;;;21.69;37.99316;945.0129;;;;
2020/05/29 09:51:41;;;;;;;1.9;0.7;;;;;;;21.99;39.46094;945.0112;;;;
2020/05/29 09:57:02;;;;;;;2.6;1.1;;;;;;;22.45;35.92383;944.931;;;;
2020/05/29 10:01:20;;;;;;;2.2;0.8;;;;;;;22.06;41.13184;944.8607;;;;
2020/05/29 10:06:28;;;;;;;2.3;0.8;;;;;;;21.92;37.42773;944.7355;;;;
2020/05/29 10:13:33;;;;;;;3.9;0.7;;;;;;;21.77;39.37109;944.6357;;;;
2020/05/29 10:16:12;;;;;;;0.9;0.7;;;;;;;21.94;39.39844;944.692;;;;
2020/05/29 10:18:19;;;;;;;1.9;0.9;;;;;;;22.35;38.84766;944.6958;;;;
2020/05/29 10:20:55;;;;;;;1.3;0.8;;;;;;;22.13;37.29297;944.7205;;;;
2020/05/29 10:24:51;;;;;;;1.8;0.9;;;;;;;22.28;39.7334;944.6583;;;;
2020/05/29 10:25:36;;;;;;;3.9;0.8;;;;;;;22.27;39.07617;944.5839;;;;
2020/05/29 10:30:23;;;;;;;2.6;0.8;;;;;;;23.38;36.58594;944.5785;;;;
2020/05/29 10:44:51;;;;;;;2.2;0.7;;;;;;;22.65;36.05762;944.569;;;;
2020/05/29 10:49:51;;;;;;;2.5;0.8;;;;;;;22.25;39.44922;944.552;;;;
2020/05/29 10:55:11;;;;;;;1.8;0.7;;;;;;;21.99;36.16797;944.5374;;;;
2020/05/29 11:04:21;;;;;;;1.1;0.7;;;;;;;21.21;38.77148;944.4746;;;;
2020/05/29 11:06:41;;;;;;;1.7;0.8;;;;;;;21.41;41.9375;944.4253;;;;
2020/05/29 11:09:10;;;;;;;2.3;0.7;;;;;;;21.89;38.83105;944.4434;;;;
2020/05/29 11:13:59;;;;;;;1.4;0.6;;;;;;;22.73;37.24902;944.35;;;;
2020/05/29 11:16:27;;;;;;;1.5;0.8;;;;;;;22.32;38.54102;944.3125;;;;
2020/05/29 11:24:22;;;;;;;2.3;0.7;;;;;;;22.17;38.25781;944.2942;;;;
2020/05/29 11:26:04;;;;;;;1.1;0.6;;;;;;;22.32;37.87207;944.2996;;;;
2020/05/29 11:28:51;;;;;;;2.1;0.8;;;;;;;22.22;36.17578;944.2637;;;;
2020/05/29 11:32:06;;;;;;;2;0.7;;;;;;;22.17;39.52441;944.1984;;;;
2020/05/29 11:33:25;;;;;;;1;0.6;;;;;;;21.88;37.4707;944.2402;;;;
2020/05/29 11:36:26;;;;;;;1.3;0.5;;;;;;;21.86;37.17676;944.2172;;;;
2020/05/29 11:40:42;;;;;;;1.8;0.8;;;;;;;21.43;37.03516;944.1473;;;;
2020/05/29 11:42:58;;;;;;;1;0.7;;;;;;;21.49;38.40918;944.1395;;;;
2020/05/29 11:45:23;;;;;;;2.1;0.6;;;;;;;21.32;37.08496;944.1608;;;;
2020/05/29 11:47:51;;;;;;;2.5;0.8;;;;;;;21.05;38.89844;944.1451;;;;
2020/05/29 11:50:16;;;;;;;2.3;0.7;;;;;;;20.52;39.79785;944.0873;;;;
2020/05/29 11:52:43;;;;;;;2.6;0.6;;;;;;;20.43;39.67188;944.0461;;;;
2020/05/29 11:55:08;;;;;;;2.8;0.6;;;;;;;20.32;39.81445;944.0201;;;;
2020/05/29 11:57:34;;;;;;;1.4;0.5;;;;;;;20.28;39.19238;943.9699;;;;
2020/05/29 11:59:59;;;;;;;1.8;0.7;;;;;;;20.41;39.35547;944.0017;;;;
2020/05/29 12:02:25;;;;;;;2.1;0.8;;;;;;;20.4;39.6582;944.0461;;;;
2020/05/29 12:04:50;;;;;;;3.1;0.9;;;;;;;20.32;39.79199;944.0087;;;;
2020/05/29 12:07:16;;;;;;;3.2;0.7;;;;;;;20.12;39.71484;944.0469;;;;
2020/05/29 12:09:41;;;;;;;3.7;0.8;;;;;;;20;40.6377;943.9833;;;;
2020/05/29 12:12:08;;;;;;;2.1;0.9;;;;;;;19.72;41.34668;943.9894;;;;
2020/05/29 12:14:33;;;;;;;2.3;0.8;;;;;;;19.57;40.62207;943.9584;;;;
2020/05/29 12:19:28;;;;;;;3.1;0.9;;;;;;;19.65;41.26953;943.9171;;;;
2020/05/29 12:21:50;;;;;;;1.4;0.7;;;;;;;19.27;42.35352;943.9528;;;;
2020/05/29 12:24:15;;;;;;;2.3;1;;;;;;;19.15;42.3291;943.9188;;;;
2020/05/29 12:26:40;;;;;;;2.5;0.9;;;;;;;18.98;42.44141;943.8894;;;;
2020/05/29 12:29:05;;;;;;;3.9;1;;;;;;;18.68;42.71484;943.9166;;;;
2020/05/29 12:31:31;;;;;;;3.7;0.9;;;;;;;18.65;43.86426;943.9217;;;;
2020/05/29 12:33:57;;;;;;;3.3;0.9;;;;;;;18.73;43.2666;943.9497;;;;
2020/05/29 12:36:22;;;;;;;2.4;1;;;;;;;18.65;43.06152;943.8975;;;;
2020/05/29 12:38:49;;;;;;;2;0.8;;;;;;;18.67;44.13281;943.8456;;;;
2020/05/29 12:41:14;;;;;;;2.1;1;;;;;;;18.68;43.04102;943.9028;;;;
2020/05/29 12:43:39;;;;;;;1.9;1.1;;;;;;;18.56;43.34277;943.8633;;;;
2020/05/29 12:46:04;;;;;;;3.8;1.1;;;;;;;18.55;43.36523;943.8627;;;;
2020/05/29 12:48:29;;;;;;;3.4;0.9;;;;;;;18.59;43.13574;943.7905;;;;
2020/05/29 12:50:54;;;;;;;1.8;0.8;;;;;;;18.73;43.49902;943.7279;;;;
2020/05/29 12:53:19;;;;;;;3.8;1;;;;;;;18.92;43.90137;943.695;;;;
2020/05/29 12:55:46;;;;;;;2.3;1;;;;;;;19.17;44.08984;943.7084;;;;
2020/05/29 12:58:11;;;;;;;2;0.8;;;;;;;19.33;41.85645;943.7372;;;;
2020/05/29 13:00:37;;;;;;;2;1;;;;;;;19.23;41.19629;943.6934;;;;
2020/05/29 13:03:03;;;;;;;2.3;0.9;;;;;;;19.34;41.3457;943.6731;;;;
2020/05/29 13:05:27;;;;;;;1.8;0.9;;;;;;;19.42;42.2041;943.6713;;;;
2020/05/29 13:07:53;;;;;;;2.3;1;;;;;;;19.4;43.00586;943.6205;;;;
2020/05/29 13:10:18;;;;;;;2.6;1;;;;;;;19.61;42.52539;943.5644;;;;
2020/05/29 13:12:44;;;;;;;3.6;1;;;;;;;19.9;42.05176;943.5809;;;;
2020/05/29 13:15:09;;;;;;;3.7;1.1;;;;;;;19.86;42.31641;943.5234;;;;
2020/05/29 13:17:37;;;;;;;1.4;0.9;;;;;;;19.95;40.67969;943.4724;;;;
2020/05/29 13:20:00;;;;;;;3.1;1.1;;;;;;;19.52;41.38574;943.425;;;;
2020/05/29 13:22:27;;;;;;;2.6;1;;;;;;;20.01;40.48633;943.3848;;;;
2020/05/29 13:27:17;;;;;;;6.2;0.9;;;;;;;20.46;39.89746;943.3514;;;;
2020/05/29 13:29:43;;;;;;;1.5;1;;;;;;;20.58;38.13281;943.3196;;;;
2020/05/29 13:32:08;;;;;;;2.1;1.1;;;;;;;20.38;40.14648;943.3613;;;;
2020/05/29 13:34:34;;;;;;;2.5;0.8;;;;;;;20.4;41.31641;943.2978;;;;
2020/05/29 13:37:00;;;;;;;3.2;1;;;;;;;20.26;43.05566;943.3442;;;;
2020/05/29 13:39:26;;;;;;;3;1.2;;;;;;;20.2;41.47266;943.3758;;;;
2020/05/29 13:44:16;;;;;;;2.5;1;;;;;;;19.91;41.76074;943.2751;;;;
2020/05/29 13:46:42;;;;;;;3;1.1;;;;;;;19.46;41.97461;943.2208;;;;
2020/05/29 13:49:07;;;;;;;2.5;1.2;;;;;;;19.57;42.64941;943.2644;;;;
2020/05/29 13:51:44;;;;;;;2.7;1.1;;;;;;;19.56;41.55273;943.1799;;;;
2020/05/29 13:54:02;;;;;;;4.6;1.3;;;;;;;19.36;41.59277;943.2584;;;;
2020/05/29 13:56:24;;;;;;;4.1;1.3;;;;;;;19.4;42.54004;943.2377;;;;
2020/05/29 14:04:35;;;;;;;3.8;1.4;;;;;;;19.22;44.08301;943.1194;;;;
2020/05/29 14:08:53;;;;;;;3.8;1.6;;;;;;;18.96;45.13965;943.2061;;;;
2020/05/29 14:11:02;;;;;;;2.5;1.4;;;;;;;18.97;45.95508;943.218;;;;
2020/05/29 14:18:37;;;;;;;2.3;1.4;;;;;;;18.98;45.08301;943.1356;;;;
2020/05/29 14:20:57;;;;;;;4.4;1.8;;;;;;;19.03;44.90234;943.0778;;;;
2020/05/29 14:23:10;;;;;;;2.4;1.4;;;;;;;18.84;45.09277;943.0674;;;;
2020/05/29 14:25:56;;;;;;;2.9;1.5;;;;;;;18.83;45.8252;943.0458;;;;
2020/05/29 14:30:33;;;;;;;3.9;1.7;;;;;;;19;46.14551;943.0513;;;;
2020/05/29 14:32:53;;;;;;;5.3;1.6;;;;;;;19.13;45.26172;943.073;;;;
2020/05/29 14:37:41;;;;;;;5.9;1.7;;;;;;;19.11;45.84277;942.9998;;;;
2020/05/29 14:45:01;;;;;;;3.5;1.8;;;;;;;18.96;45.57031;942.9897;;;;
2020/05/29 14:47:24;;;;;;;3.1;1.6;;;;;;;18.62;46.04785;942.9997;;;;
2020/05/29 14:52:21;;;;;;;3.2;1.7;;;;;;;18.96;45.75781;942.9147;;;;
2020/05/29 14:55:22;;;;;;;2.9;1.4;;;;;;;19.11;46.75098;942.8956;;;;
2020/05/29 14:59:32;;;;;;;3.4;1.7;;;;;;;19.21;46.75977;942.8803;;;;
2020/05/29 15:02:04;;;;;;;2.9;1.5;;;;;;;19.03;45.4502;942.8695;;;;
2020/05/29 15:05:01;;;;;;;5.9;1.9;;;;;;;18.94;45.25391;942.8521;;;;
2020/05/29 15:06:45;;;;;;;2.6;1.5;;;;;;;18.96;46.19922;942.8897;;;;
2020/05/29 15:09:21;;;;;;;4;1.4;;;;;;;18.85;45.9082;942.8381;;;;
2020/05/29 15:16:34;;;;;;;3.7;1.7;;;;;;;18.97;47.44531;942.8192;;;;
2020/05/29 15:19:05;;;;;;;3;1.8;;;;;;;19.15;47.83887;942.8231;;;;
2020/05/29 15:21:31;;;;;;;3.1;1.4;;;;;;;19.25;45.58887;942.7839;;;;
2020/05/29 15:26:48;;;;;;;3.4;1.3;;;;;;;19.33;44.52539;942.776;;;;
2020/05/29 15:36:02;;;;;;;4.6;1.6;;;;;;;19.35;45.86719;942.7927;;;;
2020/05/29 15:38:17;;;;;;;3;1.8;;;;;;;19.21;47.14551;942.7866;;;;
2020/05/29 15:43:12;;;;;;;4.2;1.5;;;;;;;18.94;47.81543;942.7963;;;;
2020/05/29 15:46:03;;;;;;;3.5;1.8;;;;;;;18.79;47.75195;942.7935;;;;
2020/05/29 15:47:53;;;;;;;2.5;1.6;;;;;;;18.39;49.24316;942.8169;;;;
2020/05/29 15:50:18;;;;;;;2.4;1.6;;;;;;;18.31;48.0127;942.7759;;;;
2020/05/29 15:52:43;;;;;;;2.5;1.8;;;;;;;18.22;48.20215;942.7779;;;;
2020/05/29 15:55:09;;;;;;;3.2;2;;;;;;;17.99;46.31836;942.764;;;;
2020/05/29 15:57:35;;;;;;;4;1.7;;;;;;;17.58;48.08594;942.7958;;;;
2020/05/29 16:00:01;;;;;;;3.2;1.8;;;;;;;17.49;48.02832;942.709;;;;
2020/05/29 16:02:27;;;;;;;3.6;1.7;;;;;;;17.42;48.75098;942.7795;;;;
2020/05/29 16:04:53;;;;;;;2.9;1.7;;;;;;;17.48;50;942.7872;;;;
2020/05/29 16:07:18;;;;;;;5;1.8;;;;;;;17.33;48.92773;942.7698;;;;
2020/05/29 16:09:43;;;;;;;2.7;1.7;;;;;;;17.32;48.47363;942.7796;;;;
2020/05/29 16:12:12;;;;;;;3.2;1.6;;;;;;;17.3;49.00488;942.7001;;;;
2020/05/29 16:14:38;;;;;;;4.3;1.8;;;;;;;17.22;49.01953;942.7391;;;;
2020/05/29 16:17:03;;;;;;;2.4;1.5;;;;;;;16.97;49.12012;942.7466;;;;
2020/05/29 16:19:28;;;;;;;5.3;1.6;;;;;;;17.05;49.34863;942.7736;;;;
2020/05/29 16:21:53;;;;;;;2.3;1.5;;;;;;;17;48.89063;942.7914;;;;
2020/05/29 16:24:19;;;;;;;3.2;1.6;;;;;;;17.13;49.90234;942.7536;;;;
2020/05/29 16:26:45;;;;;;;4.1;1.7;;;;;;;17.15;49.98633;942.7751;;;;
2020/05/29 16:29:10;;;;;;;3.3;1.6;;;;;;;17.19;49.37598;942.683;;;;
2020/05/29 16:34:02;;;;;;;2.5;1.7;;;;;;;17.09;50.30371;942.7508;;;;
2020/05/29 16:36:28;;;;;;;2.4;1.7;;;;;;;17.11;48.39258;942.7047;;;;
2020/05/29 16:38:53;;;;;;;2.6;1.6;;;;;;;17.13;49.56641;942.6716;;;;
2020/05/29 16:41:19;;;;;;;3;1.6;;;;;;;17.12;48.73047;942.7545;;;;
2020/05/29 16:43:43;;;;;;;3.8;1.7;;;;;;;17.09;48.49609;942.7185;;;;
2020/05/29 16:46:09;;;;;;;4.5;1.8;;;;;;;16.95;48.6543;942.6429;;;;
2020/05/29 16:48:34;;;;;;;2.8;1.8;;;;;;;16.96;49.19922;942.634;;;;
2020/05/29 16:50:59;;;;;;;3.4;1.6;;;;;;;17.09;48.79688;942.6348;;;;
2020/05/29 16:53:25;;;;;;;2.9;1.7;;;;;;;17.07;50.40527;942.6383;;;;
2020/05/29 16:55:51;;;;;;;3.5;1.8;;;;;;;17.16;51.67969;942.6591;;;;
2020/05/29 16:58:17;;;;;;;4.2;1.9;;;;;;;17.18;49.81543;942.6131;;;;
2020/05/29 17:00:42;;;;;;;3.5;1.7;;;;;;;17.27;49.02441;942.5901;;;;
2020/05/29 17:03:09;;;;;;;3;1.8;;;;;;;17.33;48.97461;942.5187;;;;
2020/05/29 17:05:34;;;;;;;3.4;1.8;;;;;;;17.38;50.70703;942.5496;;;;
2020/05/29 17:08:00;;;;;;;2.4;2;;;;;;;17.4;50.1416;942.572;;;;
2020/05/29 17:10:25;;;;;;;4.3;2;;;;;;;17.43;51.94238;942.5671;;;;
2020/05/29 17:12:51;;;;;;;4.9;2.9;;;;;;;17.47;49.97656;942.5691;;;;
2020/05/29 17:15:16;;;;;;;2.7;2.2;;;;;;;17.48;50.29102;942.5867;;;;
2020/05/29 17:17:41;;;;;;;3.6;2.5;;;;;;;17.48;49.97656;942.5779;;;;
2020/05/29 17:20:06;;;;;;;3.9;2.4;;;;;;;17.46;50.10156;942.5369;;;;
2020/05/29 17:22:32;;;;;;;3.5;2.1;;;;;;;17.43;49.46094;942.5598;;;;
2020/05/29 17:25:01;;;;;;;5.5;2.1;;;;;;;17.4;51.19824;942.5831;;;;
2020/05/29 17:27:22;;;;;;;4.5;1.9;;;;;;;17.39;50.12891;942.5591;;;;
2020/05/29 17:29:53;;;;;;;3.8;1.8;;;;;;;17.19;52.7373;942.5664;;;;
2020/05/29 17:32:18;;;;;;;3.7;2.2;;;;;;;17.19;50.90625;942.5108;;;;
2020/05/29 17:34:43;;;;;;;5.3;2.9;;;;;;;17.17;50.52246;942.4908;;;;
2020/05/29 17:37:08;;;;;;;4.8;2.7;;;;;;;17.06;51.13477;942.4564;;;;
2020/05/29 17:39:34;;;;;;;4.5;2.7;;;;;;;17.09;50.97559;942.4425;;;;
2020/05/29 17:42:08;;;;;;;2.8;2.3;;;;;;;17.02;51.01465;942.5179;;;;
2020/05/29 17:44:24;;;;;;;3.8;2;;;;;;;17.06;49.91699;942.512;;;;
2020/05/29 17:49:15;;;;;;;3.5;2.4;;;;;;;17;51.86914;942.5073;;;;
2020/05/29 17:51:40;;;;;;;4.3;2.1;;;;;;;17.02;50.38867;942.4826;;;;
2020/05/29 17:54:05;;;;;;;3.7;2.3;;;;;;;16.98;51.73926;942.4786;;;;
2020/05/29 17:56:30;;;;;;;2.3;1.9;;;;;;;16.96;49.47656;942.4748;;;;
2020/05/29 17:58:56;;;;;;;2.7;1.7;;;;;;;16.84;49.51074;942.45;;;;
2020/05/29 18:01:21;;;;;;;6.1;2;;;;;;;16.89;49.42285;942.4037;;;;
2020/05/29 18:03:48;;;;;;;3.5;2.1;;;;;;;16.88;49.50195;942.4568;;;;
2020/05/29 18:06:14;;;;;;;2.8;1.7;;;;;;;16.84;49.77734;942.413;;;;
2020/05/29 18:08:38;;;;;;;2.8;1.9;;;;;;;16.85;51.20313;942.4193;;;;
2020/05/29 18:11:04;;;;;;;5.2;2;;;;;;;16.66;50.40527;942.4282;;;;
2020/05/29 18:13:34;;;;;;;3.9;2.2;;;;;;;16.63;50.95703;942.4043;;;;
2020/05/29 18:16:06;;;;;;;3.7;2.2;;;;;;;16.62;51.14063;942.3755;;;;
2020/05/29 18:18:20;;;;;;;4.6;2.4;;;;;;;16.58;51.41504;942.332;;;;
2020/05/29 18:20:45;;;;;;;3.6;2;;;;;;;16.5;52.09961;942.3519;;;;
2020/05/29 18:23:12;;;;;;;4.3;2.3;;;;;;;16.44;53.59668;942.3217;;;;
2020/05/29 18:25:37;;;;;;;4.2;2.5;;;;;;;16.4;54.04199;942.3716;;;;
2020/05/29 18:28:03;;;;;;;2.8;2.1;;;;;;;16.24;54.84473;942.3853;;;;
2020/05/29 18:30:28;;;;;;;5.1;2.3;;;;;;;16.18;54.16602;942.3162;;;;
2020/05/29 18:32:58;;;;;;;6.3;2.8;;;;;;;16.16;55.41309;942.2738;;;;
2020/05/29 18:35:23;;;;;;;5.5;2.6;;;;;;;16.11;56.67969;942.3448;;;;
2020/05/29 18:37:48;;;;;;;4;2.2;;;;;;;15.92;57.09375;942.3173;;;;
2020/05/29 18:40:13;;;;;;;3.4;2.3;;;;;;;15.81;57.14844;942.3351;;;;
2020/05/29 18:45:03;;;;;;;2.8;2.4;;;;;;;15.65;56.23828;942.3398;;;;
2020/05/29 18:47:29;;;;;;;4.3;2.2;;;;;;;15.5;56.06836;942.2755;;;;
2020/05/29 18:49:54;;;;;;;4.2;2.4;;;;;;;15.38;56.44629;942.3365;;;;
2020/05/29 18:52:19;;;;;;;4.3;2.4;;;;;;;15.4;55.7793;942.2947;;;;
2020/05/29 18:54:45;;;;;;;4.6;2.3;;;;;;;15.41;56.0459;942.3541;;;;
2020/05/29 18:57:18;;;;;;;4.1;2.4;;;;;;;15.43;56.25586;942.3608;;;;
2020/05/29 19:02:00;;;;;;;5.4;2.6;;;;;;;15.35;57.01855;942.4105;;;;
2020/05/29 19:04:30;;;;;;;3.8;2.8;;;;;;;15.21;57.65918;942.4016;;;;
2020/05/29 19:07:00;;;;;;;4.3;2.7;;;;;;;15.13;57.99414;942.3664;;;;
2020/05/29 19:12:43;;;;;;;3.9;2.4;;;;;;;15.03;57.93555;942.4636;;;;
2020/05/29 19:19:02;;;;;;;3.2;2.1;;;;;;;14.97;58.00781;942.4922;;;;
2020/05/29 19:28:57;;;;;;;4;2.6;;;;;;;14.77;58.48828;942.5489;;;;
2020/05/29 19:31:29;;;;;;;3.8;2.5;;;;;;;14.78;58.12109;942.5538;;;;
2020/05/29 19:43:27;;;;;;;6.7;2.7;;;;;;;14.36;58.82422;942.6141;;;;
2020/05/29 19:46:05;;;;;;;5.6;2.8;;;;;;;14.41;58.92383;942.6919;;;;
2020/05/29 19:48:18;;;;;;;6.4;3.1;;;;;;;14.39;58.93262;942.6559;;;;
2020/05/29 19:51:49;;;;;;;5.9;3.1;;;;;;;14.4;59.46387;942.7064;;;;
2020/05/29 19:53:07;;;;;;;6;3.1;;;;;;;14.41;59.5;942.7441;;;;
2020/05/29 20:00:23;;;;;;;7;3.4;;;;;;;14.35;60.10156;942.7151;;;;
2020/05/29 20:03:10;;;;;;;9.5;3.1;;;;;;;14.25;60.52539;942.6996;;;;
2020/05/29 20:09:56;;;;;;;6.2;3.6;;;;;;;14.19;61.48535;942.7177;;;;
2020/05/29 20:12:29;;;;;;;7.9;3.5;;;;;;;14.12;61.68359;942.7158;;;;
2020/05/29 20:14:55;;;;;;;7.6;3.5;;;;;;;14.11;61.84375;942.7101;;;;
2020/05/29 20:17:32;;;;;;;5.5;3.1;;;;;;;14.05;62.53516;942.7043;;;;
2020/05/29 20:24:35;;;;;;;4.7;3.5;;;;;;;13.83;63.72363;942.6801;;;;
2020/05/29 20:26:57;;;;;;;6.3;3.8;;;;;;;13.77;64.24414;942.7219;;;;
2020/05/29 20:32:00;;;;;;;5.7;4;;;;;;;13.47;65.2002;942.6474;;;;
2020/05/29 20:41:23;;;;;;;6.1;4.2;;;;;;;13.09;66.92285;942.5084;;;;
2020/05/29 20:43:51;;;;;;;8.2;4;;;;;;;12.96;67.09863;942.6024;;;;
2020/05/29 20:46:20;;;;;;;6.5;3.8;;;;;;;12.95;66.76465;942.6014;;;;
2020/05/29 20:53:29;;;;;;;7;4;;;;;;;12.71;67.27637;942.5977;;;;
2020/05/29 20:58:20;;;;;;;6.3;4.1;;;;;;;12.39;69.12109;942.5704;;;;
2020/05/29 21:03:22;;;;;;;7.5;4.1;;;;;;;12.24;69.46387;942.5865;;;;
2020/05/29 21:05:40;;;;;;;7.8;4.2;;;;;;;12.16;69.87402;942.5399;;;;
2020/05/29 21:12:35;;;;;;;8;4.4;;;;;;;12.06;71.12988;942.5078;;;;
2020/05/29 21:15:18;;;;;;;8.6;4.6;;;;;;;11.83;71.2998;942.3973;;;;
2020/05/29 21:17:44;;;;;;;7.4;4.7;;;;;;;11.79;72.25488;942.4603;;;;
2020/05/29 21:20:27;;;;;;;6.3;4.9;;;;;;;11.66;73.35449;942.4394;;;;
2020/05/29 21:25:06;;;;;;;10.2;5.2;;;;;;;11.49;74.19336;942.4042;;;;
2020/05/29 21:27:44;;;;;;;7.7;5.3;;;;;;;11.26;75.06055;942.4003;;;;
2020/05/29 21:29:48;;;;;;;8.5;4.9;;;;;;;11.11;75.18262;942.4067;;;;
2020/05/29 21:32:18;;;;;;;6.6;4.5;;;;;;;11.11;75.10352;942.3956;;;;
2020/05/29 21:37:11;;;;;;;5.7;4;;;;;;;11;74.625;942.4279;;;;
2020/05/29 21:44:29;;;;;;;4.6;3.6;;;;;;;10.96;74.30957;942.3755;;;;
2020/05/29 21:47:07;;;;;;;4;3.4;;;;;;;11.05;73.69629;942.3174;;;;
2020/05/29 21:49:23;;;;;;;5.4;3.4;;;;;;;10.92;74.6123;942.3042;;;;
2020/05/29 21:51:38;;;;;;;4.2;3.5;;;;;;;10.93;74.08691;942.348;;;;
2020/05/29 21:54:08;;;;;;;7.1;3.9;;;;;;;10.95;73.74805;942.3484;;;;